Time;durP1;ratioP1;P1;durP2;ratioP2;P2;SDS_P1;SDS_P2;PMS_P1;PMS_P2;Temp;Humidity;BMP_temperature;BMP_pressure;BME280_temperature;BME280_humidity;BME280_pressure;Samples;Min_cycle;Max_cycle;Signal;HPM_P1;HPM_P2
2021/08/03 00:01:06;;;;;;;;;;;19.20;70.10;;;;;;491504;240;1156;-45
2021/08/03 00:03:08;;;;;;;;;;;19.20;70.10;;;;;;492019;240;1274;-45
2021/08/03 00:05:09;;;;;;;;;;;19.20;70.00;;;;;;492073;242;1076;-45
2021/08/03 00:07:10;;;;;;;;;;;19.20;70.00;;;;;;491673;240;1086;-45
2021/08/03 00:09:12;;;;;;;;;;;19.20;70.10;;;;;;491557;240;1087;-45
2021/08/03 00:11:13;;;;;;;;;;;19.20;70.10;;;;;;491684;240;1101;-45
2021/08/03 00:13:15;;;;;;;;;;;19.10;70.10;;;;;;491565;240;1074;-45
2021/08/03 00:15:16;;;;;;;;;;;19.10;70.00;;;;;;491613;240;1297;-45
2021/08/03 00:17:17;;;;;;;;;;;19.10;70.10;;;;;;491479;240;2192;-45
2021/08/03 00:19:19;;;;;;;;;;;19.10;70.10;;;;;;491587;240;1086;-45
2021/08/03 00:21:20;;;;;;;;;;;19.10;70.00;;;;;;491827;240;1180;-45
2021/08/03 00:23:21;;;;;;;;;;;19.10;70.10;;;;;;491658;240;1246;-45
2021/08/03 00:25:23;;;;;;;;;;;19.10;70.10;;;;;;491647;240;1063;-45
2021/08/03 00:27:24;;;;;;;;;;;19.10;70.20;;;;;;491499;240;1212;-45
2021/08/03 00:29:25;;;;;;;;;;;19.10;70.20;;;;;;491579;240;1168;-45
2021/08/03 00:31:27;;;;;;;;;;;19.10;70.10;;;;;;491640;240;1265;-45
2021/08/03 00:33:28;;;;;;;;;;;19.00;70.10;;;;;;491590;240;1446;-45
2021/08/03 00:35:29;;;;;;;;;;;19.10;70.20;;;;;;491685;240;1053;-45
2021/08/03 00:37:30;;;;;;;;;;;19.00;70.20;;;;;;491608;240;2195;-45
2021/08/03 00:39:32;;;;;;;;;;;19.00;70.10;;;;;;491551;240;1136;-45
2021/08/03 00:41:33;;;;;;;;;;;19.10;70.20;;;;;;491509;240;1394;-45
2021/08/03 00:43:34;;;;;;;;;;;19.10;70.20;;;;;;491609;240;986;-44
2021/08/03 00:45:36;;;;;;;;;;;19.00;70.20;;;;;;491703;240;1172;-45
2021/08/03 00:47:37;;;;;;;;;;;19.10;70.20;;;;;;491901;240;1292;-45
2021/08/03 00:49:38;;;;;;;;;;;19.00;70.20;;;;;;491960;240;1058;-45
2021/08/03 00:51:40;;;;;;;;;;;19.00;70.10;;;;;;491758;240;1072;-45
2021/08/03 00:53:41;;;;;;;;;;;19.00;70.30;;;;;;492064;240;1257;-45
2021/08/03 00:55:42;;;;;;;;;;;19.00;70.20;;;;;;492017;240;1351;-45
2021/08/03 00:57:44;;;;;;;;;;;19.00;70.30;;;;;;491871;240;2203;-45
2021/08/03 00:59:45;;;;;;;;;;;19.00;70.20;;;;;;491644;240;1157;-45
2021/08/03 01:01:46;;;;;;;;;;;19.00;70.20;;;;;;491846;240;1081;-45
2021/08/03 01:03:48;;;;;;;;;;;19.00;70.20;;;;;;491579;240;1152;-45
2021/08/03 01:05:49;;;;;;;;;;;19.00;70.30;;;;;;492030;240;1057;-45
2021/08/03 01:07:50;;;;;;;;;;;19.00;70.30;;;;;;491708;240;1081;-45
2021/08/03 01:09:52;;;;;;;;;;;19.00;70.20;;;;;;492104;240;1044;-45
2021/08/03 01:11:53;;;;;;;;;;;19.00;70.20;;;;;;491702;240;1046;-45
2021/08/03 01:13:55;;;;;;;;;;;19.00;70.20;;;;;;492077;240;1027;-45
2021/08/03 01:15:56;;;;;;;;;;;18.90;70.20;;;;;;491582;240;1187;-45
2021/08/03 01:17:59;;;;;;;;;;;19.00;70.20;;;;;;491553;240;2195;-45
2021/08/03 01:20:00;;;;;;;;;;;19.00;70.30;;;;;;491961;240;1438;-45
2021/08/03 01:22:01;;;;;;;;;;;19.00;70.30;;;;;;491571;240;1261;-45
2021/08/03 01:24:02;;;;;;;;;;;18.90;70.30;;;;;;491579;240;1096;-45
2021/08/03 01:26:04;;;;;;;;;;;19.00;70.30;;;;;;491981;240;1379;-45
2021/08/03 01:28:05;;;;;;;;;;;18.90;70.20;;;;;;491676;240;1112;-45
2021/08/03 01:30:06;;;;;;;;;;;19.00;70.20;;;;;;491621;240;1155;-45
2021/08/03 01:32:08;;;;;;;;;;;19.00;70.20;;;;;;492031;240;1183;-45
2021/08/03 01:34:09;;;;;;;;;;;18.90;70.20;;;;;;492072;240;979;-45
2021/08/03 01:36:10;;;;;;;;;;;18.90;70.30;;;;;;491911;240;1226;-45
2021/08/03 01:38:12;;;;;;;;;;;18.90;70.20;;;;;;491578;240;2196;-45
2021/08/03 01:40:13;;;;;;;;;;;19.00;70.20;;;;;;491955;240;1047;-45
2021/08/03 01:42:14;;;;;;;;;;;18.90;70.20;;;;;;491708;240;1316;-45
2021/08/03 01:44:16;;;;;;;;;;;18.90;70.20;;;;;;491631;240;1030;-45
2021/08/03 01:46:17;;;;;;;;;;;18.90;70.20;;;;;;491583;240;1495;-45
2021/08/03 01:48:18;;;;;;;;;;;18.90;70.20;;;;;;491482;240;1211;-45
2021/08/03 01:50:20;;;;;;;;;;;18.90;70.10;;;;;;491618;240;1081;-45
2021/08/03 01:52:21;;;;;;;;;;;18.90;70.20;;;;;;491706;240;1591;-45
2021/08/03 01:54:22;;;;;;;;;;;18.90;70.20;;;;;;491552;240;1194;-45
2021/08/03 01:56:24;;;;;;;;;;;18.90;70.30;;;;;;492020;240;1502;-45
2021/08/03 01:58:25;;;;;;;;;;;18.90;70.30;;;;;;492000;240;2137;-45
2021/08/03 02:00:26;;;;;;;;;;;18.90;70.30;;;;;;491947;240;1300;-45
2021/08/03 02:02:28;;;;;;;;;;;18.90;70.30;;;;;;491475;240;1239;-45
2021/08/03 02:04:29;;;;;;;;;;;18.90;70.30;;;;;;491944;240;1219;-45
2021/08/03 02:06:30;;;;;;;;;;;18.90;70.40;;;;;;491854;240;1326;-45
2021/08/03 02:08:32;;;;;;;;;;;18.90;70.30;;;;;;492063;240;1076;-45
2021/08/03 02:10:33;;;;;;;;;;;18.90;70.40;;;;;;492070;240;1089;-45
2021/08/03 02:12:34;;;;;;;;;;;18.90;70.40;;;;;;491964;240;1211;-45
2021/08/03 02:14:36;;;;;;;;;;;18.90;70.30;;;;;;491981;240;972;-45
2021/08/03 02:16:37;;;;;;;;;;;18.90;70.40;;;;;;491687;240;2004;-45
2021/08/03 02:18:38;;;;;;;;;;;18.90;70.40;;;;;;491679;240;2184;-45
2021/08/03 02:20:42;;;;;;;;;;;18.90;70.30;;;;;;491613;240;1133;-45
2021/08/03 02:22:41;;;;;;;;;;;18.90;70.30;;;;;;491615;240;1867;-45
2021/08/03 02:24:42;;;;;;;;;;;18.90;70.30;;;;;;491676;240;1061;-45
2021/08/03 02:26:43;;;;;;;;;;;18.90;70.30;;;;;;492008;240;1397;-45
2021/08/03 02:28:45;;;;;;;;;;;18.80;70.30;;;;;;491893;240;1124;-44
2021/08/03 02:30:46;;;;;;;;;;;18.80;70.30;;;;;;491752;240;1465;-45
2021/08/03 02:32:47;;;;;;;;;;;18.90;70.50;;;;;;491998;240;1254;-45
2021/08/03 02:34:49;;;;;;;;;;;18.80;70.40;;;;;;492068;240;1094;-45
2021/08/03 02:36:50;;;;;;;;;;;18.80;70.40;;;;;;491526;240;1202;-45
2021/08/03 02:38:51;;;;;;;;;;;18.80;70.30;;;;;;491503;240;2191;-45
2021/08/03 02:40:52;;;;;;;;;;;18.80;70.40;;;;;;492019;240;1312;-45
2021/08/03 02:42:54;;;;;;;;;;;18.80;70.40;;;;;;491735;240;1162;-45
2021/08/03 02:44:55;;;;;;;;;;;18.80;70.50;;;;;;491567;240;1091;-45
2021/08/03 02:46:57;;;;;;;;;;;18.80;70.50;;;;;;491454;240;1285;-45
2021/08/03 02:49:03;;;;;;;;;;;18.80;70.40;;;;;;491865;240;1151;-45
2021/08/03 02:51:02;;;;;;;;;;;18.80;70.40;;;;;;491481;240;2534;-45
2021/08/03 02:53:04;;;;;;;;;;;18.80;70.40;;;;;;491517;240;1089;-45
2021/08/03 02:55:05;;;;;;;;;;;18.80;70.30;;;;;;491962;240;1138;-45
2021/08/03 02:57:07;;;;;;;;;;;18.80;70.40;;;;;;491549;240;1259;-45
2021/08/03 02:59:08;;;;;;;;;;;18.80;70.40;;;;;;491823;240;2144;-45
2021/08/03 03:01:09;;;;;;;;;;;18.80;70.40;;;;;;491520;240;1293;-45
2021/08/03 03:03:11;;;;;;;;;;;18.80;70.30;;;;;;491977;240;1227;-45
2021/08/03 03:05:12;;;;;;;;;;;18.80;70.40;;;;;;491741;240;1046;-45
2021/08/03 03:07:13;;;;;;;;;;;18.80;70.40;;;;;;491567;240;1279;-45
2021/08/03 03:09:15;;;;;;;;;;;18.80;70.40;;;;;;492016;240;1241;-45
2021/08/03 03:11:16;;;;;;;;;;;18.80;70.40;;;;;;491818;240;1343;-45
2021/08/03 03:13:17;;;;;;;;;;;18.80;70.30;;;;;;491522;240;1201;-45
2021/08/03 03:15:19;;;;;;;;;;;18.80;70.40;;;;;;491978;240;1040;-45
2021/08/03 03:17:20;;;;;;;;;;;18.80;70.40;;;;;;491727;240;1225;-45
2021/08/03 03:19:21;;;;;;;;;;;18.80;70.40;;;;;;492043;240;2121;-45
2021/08/03 03:21:23;;;;;;;;;;;18.80;70.40;;;;;;492032;240;1164;-45
2021/08/03 03:23:24;;;;;;;;;;;18.80;70.40;;;;;;491694;240;1193;-45
2021/08/03 03:25:25;;;;;;;;;;;18.80;70.40;;;;;;491621;240;1112;-45
2021/08/03 03:27:27;;;;;;;;;;;18.80;70.40;;;;;;491898;240;1125;-45
2021/08/03 03:29:28;;;;;;;;;;;18.80;70.30;;;;;;491578;240;1054;-45
2021/08/03 03:31:29;;;;;;;;;;;18.80;70.40;;;;;;491515;240;1290;-45
2021/08/03 03:33:31;;;;;;;;;;;18.80;70.50;;;;;;491517;240;2121;-45
2021/08/03 03:35:32;;;;;;;;;;;18.80;70.40;;;;;;491761;240;1332;-45
2021/08/03 03:37:33;;;;;;;;;;;18.80;70.40;;;;;;491934;240;2196;-45
2021/08/03 03:39:34;;;;;;;;;;;18.80;70.50;;;;;;491868;240;1067;-45
2021/08/03 03:41:36;;;;;;;;;;;18.80;70.40;;;;;;491876;240;1172;-45
2021/08/03 03:43:37;;;;;;;;;;;18.80;70.40;;;;;;491629;240;1120;-45
2021/08/03 03:45:38;;;;;;;;;;;18.80;70.40;;;;;;491562;240;1226;-45
2021/08/03 03:47:40;;;;;;;;;;;18.80;70.30;;;;;;491685;240;1207;-45
2021/08/03 03:49:41;;;;;;;;;;;18.80;70.30;;;;;;492023;240;1101;-45
2021/08/03 03:51:42;;;;;;;;;;;18.80;70.50;;;;;;491718;240;1311;-45
2021/08/03 03:53:44;;;;;;;;;;;18.80;70.40;;;;;;491788;240;1402;-45
2021/08/03 03:55:45;;;;;;;;;;;18.80;70.40;;;;;;491687;240;1090;-45
2021/08/03 03:57:46;;;;;;;;;;;18.80;70.30;;;;;;491548;240;2133;-45
2021/08/03 03:59:48;;;;;;;;;;;18.80;70.40;;;;;;492010;240;1271;-45
2021/08/03 04:01:49;;;;;;;;;;;18.80;70.50;;;;;;491973;240;1293;-45
2021/08/03 04:03:50;;;;;;;;;;;18.80;70.50;;;;;;491602;240;1237;-45
2021/08/03 04:05:53;;;;;;;;;;;18.80;70.40;;;;;;491571;240;1250;-45
2021/08/03 04:07:53;;;;;;;;;;;18.80;70.40;;;;;;491536;240;2297;-45
2021/08/03 04:09:54;;;;;;;;;;;18.80;70.50;;;;;;491711;240;1062;-45
2021/08/03 04:11:55;;;;;;;;;;;18.80;70.50;;;;;;491903;240;1194;-45
2021/08/03 04:13:57;;;;;;;;;;;18.70;70.50;;;;;;492009;240;1078;-45
2021/08/03 04:15:58;;;;;;;;;;;18.80;70.50;;;;;;491438;240;1375;-45
2021/08/03 04:18:00;;;;;;;;;;;18.80;70.50;;;;;;491729;240;2175;-45
2021/08/03 04:20:01;;;;;;;;;;;18.70;70.50;;;;;;491745;240;1184;-45
2021/08/03 04:22:02;;;;;;;;;;;18.70;70.50;;;;;;491813;240;1650;-45
2021/08/03 04:24:03;;;;;;;;;;;18.70;70.50;;;;;;491585;240;1145;-45
2021/08/03 04:26:05;;;;;;;;;;;18.80;70.50;;;;;;491682;240;1335;-45
2021/08/03 04:28:06;;;;;;;;;;;18.80;70.40;;;;;;491561;240;1161;-45
2021/08/03 04:30:07;;;;;;;;;;;18.70;70.50;;;;;;491523;240;1098;-45
2021/08/03 04:32:09;;;;;;;;;;;18.70;70.60;;;;;;491602;240;1189;-45
2021/08/03 04:34:10;;;;;;;;;;;18.80;70.60;;;;;;491504;240;1102;-45
2021/08/03 04:36:11;;;;;;;;;;;18.80;70.60;;;;;;491352;240;1201;-45
2021/08/03 04:38:13;;;;;;;;;;;18.80;70.50;;;;;;491656;240;2192;-45
2021/08/03 04:40:14;;;;;;;;;;;18.80;70.50;;;;;;491542;240;1224;-45
2021/08/03 04:42:15;;;;;;;;;;;18.80;70.40;;;;;;491730;240;1167;-45
2021/08/03 04:44:17;;;;;;;;;;;18.80;70.50;;;;;;491859;240;1150;-45
2021/08/03 04:46:18;;;;;;;;;;;18.70;70.50;;;;;;491589;240;1347;-45
2021/08/03 04:48:19;;;;;;;;;;;18.70;70.60;;;;;;491416;240;1236;-45
2021/08/03 04:50:20;;;;;;;;;;;18.70;70.60;;;;;;491718;240;1069;-45
2021/08/03 04:52:22;;;;;;;;;;;18.70;70.60;;;;;;491235;240;1329;-45
2021/08/03 04:54:23;;;;;;;;;;;18.70;70.60;;;;;;491582;240;1088;-45
2021/08/03 04:56:24;;;;;;;;;;;19.10;69.50;;;;;;491323;240;1194;-45
2021/08/03 04:58:26;;;;;;;;;;;19.40;68.20;;;;;;491355;240;2183;-45
2021/08/03 05:00:29;;;;;;;;;;;19.60;67.20;;;;;;491367;240;1216;-45
2021/08/03 05:02:28;;;;;;;;;;;19.80;66.50;;;;;;491291;240;2071;-45
2021/08/03 05:04:33;;;;;;;;;;;20.00;66.10;;;;;;491398;240;1075;-45
2021/08/03 05:06:31;;;;;;;;;;;20.10;65.60;;;;;;491375;240;2777;-45
2021/08/03 05:08:32;;;;;;;;;;;20.10;65.30;;;;;;491583;240;1292;-45
2021/08/03 05:10:36;;;;;;;;;;;20.20;65.10;;;;;;491413;240;1179;-46
2021/08/03 05:12:35;;;;;;;;;;;20.30;64.80;;;;;;491513;240;2238;-45
2021/08/03 05:14:36;;;;;;;;;;;20.40;64.50;;;;;;491287;240;1198;-45
2021/08/03 05:16:38;;;;;;;;;;;20.40;64.30;;;;;;491095;240;1261;-45
2021/08/03 05:18:39;;;;;;;;;;;20.50;63.80;;;;;;491384;240;2195;-45
2021/08/03 05:20:40;;;;;;;;;;;20.60;63.70;;;;;;491333;240;1056;-45
2021/08/03 05:22:42;;;;;;;;;;;20.60;63.70;;;;;;491322;240;1227;-45
2021/08/03 05:24:43;;;;;;;;;;;20.60;63.70;;;;;;491284;240;1077;-45
2021/08/03 05:26:44;;;;;;;;;;;20.70;63.60;;;;;;491327;240;1167;-45
2021/08/03 05:28:46;;;;;;;;;;;20.70;63.60;;;;;;491277;240;1173;-45
2021/08/03 05:30:47;;;;;;;;;;;20.70;63.50;;;;;;491463;240;1231;-45
2021/08/03 05:32:49;;;;;;;;;;;20.80;63.40;;;;;;491246;240;1295;-45
2021/08/03 05:34:50;;;;;;;;;;;20.80;63.10;;;;;;491280;240;1076;-45
2021/08/03 05:36:51;;;;;;;;;;;20.90;63.00;;;;;;491242;240;1189;-45
2021/08/03 05:38:53;;;;;;;;;;;20.90;63.10;;;;;;491364;240;2164;-45
2021/08/03 05:40:54;;;;;;;;;;;20.90;63.00;;;;;;491469;240;1279;-45
2021/08/03 05:42:56;;;;;;;;;;;20.90;62.90;;;;;;491137;240;1207;-46
2021/08/03 05:44:57;;;;;;;;;;;20.90;62.80;;;;;;491278;240;2011;-45
2021/08/03 05:46:58;;;;;;;;;;;20.90;62.80;;;;;;491299;240;1206;-46
2021/08/03 05:48:59;;;;;;;;;;;20.90;62.80;;;;;;491198;240;1215;-45
2021/08/03 05:51:01;;;;;;;;;;;21.00;62.80;;;;;;491248;240;1332;-45
2021/08/03 05:53:02;;;;;;;;;;;21.10;62.60;;;;;;491155;240;1347;-46
2021/08/03 05:55:03;;;;;;;;;;;21.10;62.50;;;;;;491567;240;1091;-45
2021/08/03 05:57:05;;;;;;;;;;;21.10;62.20;;;;;;491179;240;1186;-45
2021/08/03 05:59:06;;;;;;;;;;;21.10;62.30;;;;;;491349;240;2145;-45
2021/08/03 06:01:08;;;;;;;;;;;21.20;62.30;;;;;;491238;240;1291;-45
2021/08/03 06:03:09;;;;;;;;;;;21.20;62.20;;;;;;491304;240;1170;-45
2021/08/03 06:05:10;;;;;;;;;;;21.20;62.10;;;;;;491093;240;1219;-45
2021/08/03 06:07:12;;;;;;;;;;;21.20;62.10;;;;;;491020;240;1325;-45
2021/08/03 06:09:13;;;;;;;;;;;21.20;62.20;;;;;;491247;240;1152;-45
2021/08/03 06:11:14;;;;;;;;;;;21.30;62.00;;;;;;491078;240;1180;-46
2021/08/03 06:13:16;;;;;;;;;;;21.30;62.10;;;;;;491228;240;1219;-45
2021/08/03 06:15:17;;;;;;;;;;;21.30;62.10;;;;;;491172;240;1113;-46
2021/08/03 06:17:18;;;;;;;;;;;21.20;62.10;;;;;;490995;240;1356;-46
2021/08/03 06:19:20;;;;;;;;;;;21.20;62.10;;;;;;491306;240;2179;-46
2021/08/03 06:21:21;;;;;;;;;;;21.30;62.00;;;;;;491105;240;1200;-46
2021/08/03 06:23:22;;;;;;;;;;;21.40;61.90;;;;;;491135;240;1164;-46
2021/08/03 06:25:24;;;;;;;;;;;21.40;61.80;;;;;;491158;240;1094;-46
2021/08/03 06:27:25;;;;;;;;;;;21.40;61.80;;;;;;491039;240;1323;-46
2021/08/03 06:29:26;;;;;;;;;;;21.40;61.90;;;;;;490967;240;1091;-46
2021/08/03 06:31:28;;;;;;;;;;;21.40;61.90;;;;;;490923;240;1309;-46
2021/08/03 06:33:29;;;;;;;;;;;21.40;61.90;;;;;;491107;240;1302;-46
2021/08/03 06:35:30;;;;;;;;;;;21.40;61.90;;;;;;490929;240;1154;-46
2021/08/03 06:37:31;;;;;;;;;;;21.40;61.80;;;;;;490911;240;1235;-46
2021/08/03 06:39:33;;;;;;;;;;;21.40;61.80;;;;;;490899;240;2187;-46
2021/08/03 06:41:34;;;;;;;;;;;21.40;61.80;;;;;;490991;240;1261;-46
2021/08/03 06:43:35;;;;;;;;;;;21.40;61.70;;;;;;490833;240;1211;-46
2021/08/03 06:45:37;;;;;;;;;;;21.50;61.70;;;;;;490931;240;1303;-46
2021/08/03 06:47:38;;;;;;;;;;;21.50;61.50;;;;;;490950;240;1247;-46
2021/08/03 06:49:39;;;;;;;;;;;21.50;61.50;;;;;;491008;240;1202;-46
2021/08/03 06:51:41;;;;;;;;;;;21.50;61.50;;;;;;490969;240;1399;-46
2021/08/03 06:53:42;;;;;;;;;;;21.50;61.50;;;;;;490886;240;1266;-46
2021/08/03 06:55:43;;;;;;;;;;;21.60;61.40;;;;;;490931;240;1507;-46
2021/08/03 06:57:45;;;;;;;;;;;21.50;61.50;;;;;;490948;240;1078;-46
2021/08/03 06:59:46;;;;;;;;;;;21.60;61.50;;;;;;490956;240;2192;-46
2021/08/03 07:01:48;;;;;;;;;;;21.60;61.40;;;;;;490899;240;1184;-46
2021/08/03 07:03:49;;;;;;;;;;;21.60;61.40;;;;;;491039;240;1360;-45
2021/08/03 07:05:51;;;;;;;;;;;21.60;61.50;;;;;;490920;240;1078;-46
2021/08/03 07:07:52;;;;;;;;;;;21.60;61.50;;;;;;490839;240;1460;-45
2021/08/03 07:09:54;;;;;;;;;;;21.70;61.40;;;;;;490758;240;1313;-46
2021/08/03 07:11:55;;;;;;;;;;;21.70;61.30;;;;;;490652;240;1326;-46
2021/08/03 07:13:57;;;;;;;;;;;21.70;61.20;;;;;;491169;240;1095;-46
2021/08/03 07:15:58;;;;;;;;;;;21.70;61.30;;;;;;490953;240;1189;-46
2021/08/03 07:17:59;;;;;;;;;;;21.70;61.40;;;;;;490705;240;1226;-46
2021/08/03 07:20:01;;;;;;;;;;;21.70;61.40;;;;;;490683;240;2192;-46
2021/08/03 07:22:02;;;;;;;;;;;21.70;61.30;;;;;;490673;240;1244;-45
2021/08/03 07:24:04;;;;;;;;;;;21.70;61.30;;;;;;490734;240;1215;-46
2021/08/03 07:26:05;;;;;;;;;;;21.70;61.30;;;;;;490819;240;1195;-46
2021/08/03 07:28:06;;;;;;;;;;;21.70;61.20;;;;;;490810;240;1369;-46
2021/08/03 07:30:08;;;;;;;;;;;21.70;61.20;;;;;;490771;240;1169;-46
2021/08/03 07:32:09;;;;;;;;;;;21.60;62.10;;;;;;490679;240;1285;-46
2021/08/03 07:34:10;;;;;;;;;;;21.70;62.30;;;;;;490785;240;1249;-46
2021/08/03 07:36:12;;;;;;;;;;;21.50;62.80;;;;;;490716;240;1144;-46
2021/08/03 07:38:13;;;;;;;;;;;21.10;64.00;;;;;;490694;240;1152;-46
2021/08/03 07:40:14;;;;;;;;;;;20.80;65.40;;;;;;490940;240;2139;-46
2021/08/03 07:42:16;;;;;;;;;;;20.50;66.40;;;;;;490834;240;1323;-46
2021/08/03 07:44:17;;;;;;;;;;;20.30;67.00;;;;;;490882;240;1111;-45
2021/08/03 07:46:18;;;;;;;;;;;20.20;67.50;;;;;;490859;240;1228;-45
2021/08/03 07:48:20;;;;;;;;;;;20.10;67.80;;;;;;491034;240;1150;-46
2021/08/03 07:50:21;;;;;;;;;;;20.00;68.10;;;;;;490831;240;1185;-45
2021/08/03 07:52:23;;;;;;;;;;;19.90;68.20;;;;;;491045;240;1324;-45
2021/08/03 07:54:24;;;;;;;;;;;19.90;68.40;;;;;;491165;240;1118;-46
2021/08/03 07:56:25;;;;;;;;;;;19.80;68.60;;;;;;490848;240;1350;-46
2021/08/03 07:58:27;;;;;;;;;;;19.80;68.70;;;;;;490866;240;1079;-46
2021/08/03 08:00:28;;;;;;;;;;;19.70;68.80;;;;;;490844;240;2144;-46
2021/08/03 08:02:29;;;;;;;;;;;19.70;68.90;;;;;;490846;240;1161;-45
2021/08/03 08:04:30;;;;;;;;;;;19.70;69.00;;;;;;490897;240;1157;-45
2021/08/03 08:06:32;;;;;;;;;;;19.60;69.00;;;;;;490869;240;1320;-46
2021/08/03 08:08:33;;;;;;;;;;;19.60;69.10;;;;;;490974;240;1182;-45
2021/08/03 08:10:34;;;;;;;;;;;19.60;69.20;;;;;;490875;240;1182;-46
2021/08/03 08:12:36;;;;;;;;;;;19.60;69.30;;;;;;490800;240;1214;-46
2021/08/03 08:14:37;;;;;;;;;;;19.50;69.20;;;;;;490739;240;1110;-46
2021/08/03 08:16:38;;;;;;;;;;;19.50;69.20;;;;;;490675;240;1207;-46
2021/08/03 08:18:40;;;;;;;;;;;19.50;69.40;;;;;;490690;240;1312;-45
2021/08/03 08:20:41;;;;;;;;;;;19.50;69.30;;;;;;490788;240;2137;-46
2021/08/03 08:22:43;;;;;;;;;;;19.50;69.40;;;;;;490684;240;1252;-46
2021/08/03 08:24:44;;;;;;;;;;;19.40;69.40;;;;;;490802;240;1080;-46
2021/08/03 08:26:46;;;;;;;;;;;19.40;69.30;;;;;;490680;240;1228;-46
2021/08/03 08:28:47;;;;;;;;;;;19.40;69.50;;;;;;490721;240;2331;-46
2021/08/03 08:30:48;;;;;;;;;;;19.40;69.50;;;;;;490781;240;1181;-46
2021/08/03 08:32:50;;;;;;;;;;;19.40;69.60;;;;;;490683;240;1244;-46
2021/08/03 08:34:51;;;;;;;;;;;19.30;69.60;;;;;;491039;240;1208;-47
2021/08/03 08:36:53;;;;;;;;;;;19.40;69.70;;;;;;490907;240;1154;-46
2021/08/03 08:38:54;;;;;;;;;;;19.30;69.60;;;;;;490808;240;1167;-47
2021/08/03 08:40:55;;;;;;;;;;;19.30;69.70;;;;;;490809;240;2184;-46
2021/08/03 08:42:56;;;;;;;;;;;19.30;69.70;;;;;;490811;240;1248;-47
2021/08/03 08:44:58;;;;;;;;;;;19.30;69.80;;;;;;490761;240;1096;-47
2021/08/03 08:46:59;;;;;;;;;;;19.30;69.70;;;;;;490589;240;1184;-47
2021/08/03 08:49:00;;;;;;;;;;;19.30;69.80;;;;;;490843;240;1161;-47
2021/08/03 08:51:01;;;;;;;;;;;19.30;69.60;;;;;;490761;240;1100;-47
2021/08/03 08:53:03;;;;;;;;;;;19.30;69.60;;;;;;490736;240;1227;-47
2021/08/03 08:55:04;;;;;;;;;;;19.30;69.80;;;;;;490654;240;1102;-47
2021/08/03 08:57:06;;;;;;;;;;;19.30;69.70;;;;;;490624;240;1410;-46
2021/08/03 08:59:07;;;;;;;;;;;19.30;69.70;;;;;;490875;240;1117;-46
2021/08/03 09:01:08;;;;;;;;;;;19.20;69.80;;;;;;490824;240;2184;-46
2021/08/03 09:03:10;;;;;;;;;;;19.20;69.80;;;;;;490867;240;1126;-47
2021/08/03 09:05:11;;;;;;;;;;;19.20;69.70;;;;;;490930;240;1160;-47
2021/08/03 09:07:12;;;;;;;;;;;19.20;69.70;;;;;;490817;240;1154;-46
2021/08/03 09:09:14;;;;;;;;;;;19.20;69.70;;;;;;490694;240;1198;-46
2021/08/03 09:11:15;;;;;;;;;;;19.20;69.90;;;;;;490486;240;1233;-47
2021/08/03 09:13:16;;;;;;;;;;;19.20;69.90;;;;;;490535;240;1216;-46
2021/08/03 09:15:18;;;;;;;;;;;19.20;69.80;;;;;;490547;240;1292;-47
2021/08/03 09:17:19;;;;;;;;;;;19.20;69.90;;;;;;490834;240;1211;-46
2021/08/03 09:19:20;;;;;;;;;;;19.20;69.90;;;;;;491510;240;1077;-46
2021/08/03 09:21:22;;;;;;;;;;;19.10;70.00;;;;;;491045;240;2184;-46
2021/08/03 09:23:23;;;;;;;;;;;19.10;69.90;;;;;;490621;240;1151;-47
2021/08/03 09:25:25;;;;;;;;;;;19.10;70.00;;;;;;490727;240;1178;-46
2021/08/03 09:27:26;;;;;;;;;;;19.10;69.90;;;;;;491048;240;1205;-46
2021/08/03 09:29:27;;;;;;;;;;;19.10;70.00;;;;;;490903;240;1196;-47
2021/08/03 09:31:29;;;;;;;;;;;19.10;70.00;;;;;;491065;240;1216;-46
2021/08/03 09:33:30;;;;;;;;;;;19.10;70.00;;;;;;490872;240;1085;-46
2021/08/03 09:35:31;;;;;;;;;;;19.10;70.00;;;;;;490567;240;1396;-47
2021/08/03 09:37:33;;;;;;;;;;;19.10;70.00;;;;;;490543;240;1142;-47
2021/08/03 09:39:34;;;;;;;;;;;19.10;70.10;;;;;;490940;240;1189;-46
2021/08/03 09:41:35;;;;;;;;;;;19.10;70.00;;;;;;491012;240;2196;-46
2021/08/03 09:43:37;;;;;;;;;;;19.10;70.00;;;;;;490890;240;1085;-47
2021/08/03 09:45:38;;;;;;;;;;;19.10;70.00;;;;;;490855;240;1087;-47
2021/08/03 09:47:39;;;;;;;;;;;19.00;70.10;;;;;;490782;240;1219;-46
2021/08/03 09:49:41;;;;;;;;;;;19.00;70.10;;;;;;490837;240;1102;-46
2021/08/03 09:51:42;;;;;;;;;;;19.00;70.10;;;;;;490845;240;1347;-47
2021/08/03 09:53:43;;;;;;;;;;;19.10;70.00;;;;;;490825;240;1125;-47
2021/08/03 09:55:45;;;;;;;;;;;19.10;70.10;;;;;;491043;240;1158;-46
2021/08/03 09:57:46;;;;;;;;;;;19.10;70.10;;;;;;490819;240;1154;-46
2021/08/03 09:59:47;;;;;;;;;;;19.10;70.00;;;;;;491040;240;1130;-47
2021/08/03 10:01:51;;;;;;;;;;;19.00;70.00;;;;;;490894;240;2185;-46
2021/08/03 10:03:50;;;;;;;;;;;19.10;70.10;;;;;;490881;240;1521;-46
2021/08/03 10:05:51;;;;;;;;;;;19.00;70.10;;;;;;490664;240;1123;-46
2021/08/03 10:07:53;;;;;;;;;;;19.00;70.00;;;;;;491014;240;1066;-47
2021/08/03 10:09:54;;;;;;;;;;;19.00;70.00;;;;;;491227;240;1046;-47
2021/08/03 10:11:56;;;;;;;;;;;19.00;70.00;;;;;;490972;240;1311;-46
2021/08/03 10:13:57;;;;;;;;;;;19.00;70.10;;;;;;490883;240;1178;-46
2021/08/03 10:15:58;;;;;;;;;;;19.00;70.10;;;;;;490778;240;1241;-46
2021/08/03 10:18:00;;;;;;;;;;;19.00;70.10;;;;;;491071;240;1101;-47
2021/08/03 10:20:01;;;;;;;;;;;19.00;70.20;;;;;;490684;240;2124;-47
2021/08/03 10:22:03;;;;;;;;;;;19.00;70.20;;;;;;490780;240;1276;-46
2021/08/03 10:24:04;;;;;;;;;;;19.00;70.30;;;;;;491531;240;1081;-47
2021/08/03 10:26:05;;;;;;;;;;;19.00;70.20;;;;;;490890;240;1117;-46
2021/08/03 10:28:07;;;;;;;;;;;19.00;70.20;;;;;;490631;240;1211;-46
2021/08/03 10:30:08;;;;;;;;;;;19.00;70.20;;;;;;490744;240;1084;-47
2021/08/03 10:32:09;;;;;;;;;;;18.90;70.20;;;;;;490770;240;1155;-46
2021/08/03 10:34:11;;;;;;;;;;;19.00;70.10;;;;;;490696;240;1080;-47
2021/08/03 10:36:12;;;;;;;;;;;19.00;70.10;;;;;;490674;240;1362;-47
2021/08/03 10:38:13;;;;;;;;;;;18.90;70.10;;;;;;490483;240;1472;-46
2021/08/03 10:40:15;;;;;;;;;;;19.00;70.20;;;;;;490665;240;2188;-47
2021/08/03 10:42:16;;;;;;;;;;;19.00;70.30;;;;;;490714;240;1370;-46
2021/08/03 10:44:17;;;;;;;;;;;19.00;70.10;;;;;;490592;240;1224;-46
2021/08/03 10:46:19;;;;;;;;;;;18.90;70.20;;;;;;490535;240;1245;-46
2021/08/03 10:48:20;;;;;;;;;;;18.90;70.20;;;;;;491086;240;1035;-47
2021/08/03 10:50:21;;;;;;;;;;;19.00;70.30;;;;;;491542;240;888;-46
2021/08/03 10:52:23;;;;;;;;;;;18.90;70.30;;;;;;490995;240;1054;-46
2021/08/03 10:54:24;;;;;;;;;;;18.90;70.10;;;;;;491575;240;974;-46
2021/08/03 10:56:25;;;;;;;;;;;18.90;70.10;;;;;;490689;240;1334;-46
2021/08/03 10:58:28;;;;;;;;;;;18.90;70.20;;;;;;491405;240;1102;-47
2021/08/03 11:00:28;;;;;;;;;;;18.90;70.20;;;;;;491142;240;2140;-47
2021/08/03 11:02:29;;;;;;;;;;;18.90;70.20;;;;;;491524;240;1076;-47
2021/08/03 11:04:31;;;;;;;;;;;18.90;70.30;;;;;;490827;240;1079;-46
2021/08/03 11:06:32;;;;;;;;;;;18.90;70.30;;;;;;490476;240;1314;-46
2021/08/03 11:08:34;;;;;;;;;;;18.90;70.20;;;;;;490526;240;1197;-46
2021/08/03 11:10:35;;;;;;;;;;;18.90;70.20;;;;;;490887;240;1093;-47
2021/08/03 11:12:36;;;;;;;;;;;18.90;70.30;;;;;;490826;240;1250;-46
2021/08/03 11:14:38;;;;;;;;;;;18.90;70.30;;;;;;490956;240;1163;-46
2021/08/03 11:16:39;;;;;;;;;;;18.90;70.30;;;;;;490771;240;1326;-46
2021/08/03 11:18:40;;;;;;;;;;;18.90;70.30;;;;;;490787;240;1076;-46
2021/08/03 11:20:42;;;;;;;;;;;18.90;70.30;;;;;;490770;240;2175;-47
2021/08/03 11:22:43;;;;;;;;;;;18.90;70.30;;;;;;490786;240;1191;-46
2021/08/03 11:24:44;;;;;;;;;;;18.80;70.40;;;;;;490709;240;1241;-46
2021/08/03 11:26:46;;;;;;;;;;;18.80;70.40;;;;;;490549;240;1374;-46
2021/08/03 11:28:47;;;;;;;;;;;18.90;70.30;;;;;;490614;240;1248;-47
2021/08/03 11:30:48;;;;;;;;;;;18.90;70.20;;;;;;490885;240;1183;-46
2021/08/03 11:32:50;;;;;;;;;;;18.90;70.30;;;;;;491556;240;1194;-46
2021/08/03 11:34:52;;;;;;;;;;;18.90;70.40;;;;;;491253;240;1210;-47
2021/08/03 11:36:53;;;;;;;;;;;18.90;70.30;;;;;;491040;240;1278;-46
2021/08/03 11:38:54;;;;;;;;;;;18.90;70.30;;;;;;491101;240;1261;-46
2021/08/03 11:40:56;;;;;;;;;;;18.90;70.40;;;;;;491512;240;2204;-46
2021/08/03 11:42:57;;;;;;;;;;;18.90;70.40;;;;;;491126;240;1227;-46
2021/08/03 11:44:58;;;;;;;;;;;18.90;70.40;;;;;;491101;240;835;-47
2021/08/03 11:47:00;;;;;;;;;;;18.90;70.30;;;;;;491478;240;1100;-47
2021/08/03 11:49:01;;;;;;;;;;;18.90;70.50;;;;;;491518;240;1332;-47
2021/08/03 11:51:02;;;;;;;;;;;18.80;70.50;;;;;;491102;240;1233;-46
2021/08/03 11:53:04;;;;;;;;;;;18.90;70.50;;;;;;491316;240;1320;-46
2021/08/03 11:55:05;;;;;;;;;;;18.90;70.50;;;;;;491000;240;1351;-46
2021/08/03 11:57:06;;;;;;;;;;;18.90;70.40;;;;;;491004;240;1354;-46